Time;durP1;ratioP1;P1;durP2;ratioP2;P2;SDS_P1;SDS_P2;PMS_P1;PMS_P2;Temp;Humidity;BMP_temperature;BMP_pressure;BME280_temperature;BME280_humidity;BME280_pressure;Samples;Min_cycle;Max_cycle;Signal;HPM_P1;HPM_P2
2022/04/30 00:02:07;;;;;;;18.25;9.55;;;8.00;96.50;;;;;;4974047;28;93315;-70
2022/04/30 00:04:45;;;;;;;15.43;8.30;;;8.00;96.60;;;;;;4973996;28;95944;-70
2022/04/30 00:07:15;;;;;;;14.13;9.30;;;8.00;96.70;;;;;;4990605;28;93140;-70
2022/04/30 00:09:43;;;;;;;12.70;8.88;;;7.90;96.70;;;;;;4975519;28;91572;-70
2022/04/30 00:12:10;;;;;;;15.75;9.15;;;7.90;96.80;;;;;;4973972;28;92530;-70
2022/04/30 00:14:38;;;;;;;18.45;9.43;;;7.90;96.90;;;;;;4990072;28;95791;-70
2022/04/30 00:17:06;;;;;;;18.75;9.25;;;8.00;96.90;;;;;;4973978;28;94810;-71
2022/04/30 00:19:33;;;;;;;14.70;9.27;;;8.00;96.90;;;;;;4975419;28;92520;-70
2022/04/30 00:22:00;;;;;;;15.00;8.98;;;8.00;97.00;;;;;;4973609;28;92570;-70
2022/04/30 00:24:29;;;;;;;14.35;9.00;;;8.00;97.00;;;;;;4989846;28;95773;-71
2022/04/30 00:26:56;;;;;;;16.13;9.68;;;8.00;97.00;;;;;;4976783;28;93080;-70
2022/04/30 00:29:24;;;;;;;15.93;9.13;;;8.00;97.00;;;;;;5009925;28;92548;-70
2022/04/30 00:31:50;;;;;;;14.00;9.60;;;8.10;97.00;;;;;;5010164;28;92483;-70
2022/04/30 00:34:18;;;;;;;14.50;9.27;;;8.10;96.90;;;;;;4978817;28;92286;-70
2022/04/30 00:36:44;;;;;;;18.20;9.32;;;8.10;96.80;;;;;;4978136;28;92408;-70
2022/04/30 00:39:11;;;;;;;17.02;9.70;;;8.10;96.90;;;;;;4977080;28;92429;-70
2022/04/30 00:41:43;;;;;;;13.40;8.60;;;8.10;97.00;;;;;;4975541;28;94972;-70
2022/04/30 00:44:10;;;;;;;16.17;10.10;;;8.10;96.90;;;;;;4977167;28;93285;-71
2022/04/30 00:46:37;;;;;;;14.82;10.05;;;8.10;97.00;;;;;;4992566;28;95600;-70
2022/04/30 00:49:04;;;;;;;16.80;9.20;;;8.10;97.00;;;;;;4977374;28;92471;-70
2022/04/30 00:51:32;;;;;;;14.85;9.32;;;8.10;97.00;;;;;;4976816;28;92622;-70
2022/04/30 00:54:01;;;;;;;18.50;9.75;;;8.10;97.10;;;;;;4977244;28;93399;-70
2022/04/30 00:56:32;;;;;;;15.10;9.20;;;8.10;97.30;;;;;;4976373;28;95522;-70
2022/04/30 00:59:03;;;;;;;13.52;9.98;;;8.10;97.10;;;;;;4978279;28;91645;-70
2022/04/30 01:01:35;;;;;;;13.85;9.63;;;8.10;97.10;;;;;;4977536;28;92870;-70
2022/04/30 01:04:31;;;;;;;15.23;9.95;;;8.20;97.00;;;;;;5000749;28;94093;-71
2022/04/30 01:07:06;;;;;;;13.18;8.90;;;8.10;96.90;;;;;;4976452;28;94818;-70
2022/04/30 01:09:36;;;;;;;16.88;9.63;;;8.20;96.80;;;;;;5009991;28;92905;-70
2022/04/30 01:12:08;;;;;;;14.65;9.32;;;8.10;96.70;;;;;;4977540;28;92461;-71
2022/04/30 01:14:36;;;;;;;21.45;10.13;;;8.10;96.70;;;;;;4976240;28;95771;-71
2022/04/30 01:17:05;;;;;;;14.30;8.80;;;8.10;96.60;;;;;;4991891;28;95774;-70
2022/04/30 01:19:35;;;;;;;13.68;9.20;;;8.10;96.60;;;;;;5009458;28;92527;-70
2022/04/30 01:22:08;;;;;;;15.70;10.20;;;8.10;96.60;;;;;;4977333;28;92738;-70
2022/04/30 01:24:37;;;;;;;13.55;9.65;;;8.10;96.50;;;;;;4977514;28;92571;-70
2022/04/30 01:27:07;;;;;;;13.55;9.40;;;8.00;96.60;;;;;;4977258;28;92729;-70
2022/04/30 01:29:36;;;;;;;13.77;9.77;;;8.10;96.80;;;;;;4976539;28;92794;-70
2022/04/30 01:37:37;;;;;;;15.45;9.30;;;8.00;96.50;;;;;;4976999;28;93082;-70
2022/04/30 01:40:06;;;;;;;14.88;9.63;;;8.00;96.50;;;;;;4977037;28;92456;-70
2022/04/30 01:42:42;;;;;;;14.18;9.48;;;8.00;96.50;;;;;;5009254;28;92556;-70
2022/04/30 01:45:10;;;;;;;12.98;9.32;;;8.00;96.40;;;;;;4976993;28;93344;-70
2022/04/30 01:47:40;;;;;;;13.70;9.95;;;8.00;96.40;;;;;;4992107;28;95829;-70
2022/04/30 01:50:08;;;;;;;16.02;9.90;;;8.00;96.40;;;;;;4975841;28;91768;-70
2022/04/30 01:52:35;;;;;;;17.15;10.20;;;7.90;96.40;;;;;;4975716;28;92498;-70
2022/04/30 01:55:03;;;;;;;15.77;9.73;;;7.90;96.40;;;;;;4976261;28;93266;-70
2022/04/30 01:57:30;;;;;;;12.57;9.40;;;7.90;96.40;;;;;;4975508;28;94849;-70
2022/04/30 01:59:59;;;;;;;16.73;10.23;;;7.90;96.50;;;;;;4976767;28;92419;-70
2022/04/30 02:02:36;;;;;;;12.05;9.50;;;7.90;96.50;;;;;;4975283;28;92425;-70
2022/04/30 02:05:07;;;;;;;15.43;9.13;;;8.00;96.50;;;;;;5008566;28;95935;-70
2022/04/30 02:07:43;;;;;;;15.00;8.98;;;8.00;96.50;;;;;;4975426;28;95775;-70
2022/04/30 02:10:11;;;;;;;12.50;9.25;;;8.00;96.50;;;;;;4976909;28;92365;-70
2022/04/30 02:12:40;;;;;;;12.27;8.90;;;8.00;96.50;;;;;;4976780;28;92425;-70
2022/04/30 02:15:09;;;;;;;13.57;9.45;;;8.00;96.40;;;;;;5007630;28;105708;-70
2022/04/30 02:17:38;;;;;;;16.10;9.95;;;8.00;96.40;;;;;;4976604;28;92534;-70
2022/04/30 02:20:19;;;;;;;16.85;9.63;;;8.00;96.40;;;;;;4974676;28;92622;-70
2022/04/30 02:22:47;;;;;;;13.02;9.50;;;8.00;96.40;;;;;;4988891;28;94971;-70
2022/04/30 02:25:15;;;;;;;14.25;8.65;;;8.00;96.50;;;;;;4976093;28;93371;-70
2022/04/30 02:27:44;;;;;;;16.17;9.80;;;8.00;96.50;;;;;;4976335;28;93040;-70
2022/04/30 02:30:14;;;;;;;12.43;8.65;;;8.00;96.40;;;;;;5008192;28;92476;-70
2022/04/30 02:32:55;;;;;;;11.95;8.70;;;8.00;96.40;;;;;;5008334;28;92636;-70
2022/04/30 02:35:25;;;;;;;14.68;8.85;;;8.10;96.40;;;;;;4991322;28;95949;-70
2022/04/30 02:37:54;;;;;;;15.13;8.70;;;8.00;96.40;;;;;;4976151;28;93465;-70
2022/04/30 02:40:24;;;;;;;14.68;8.98;;;8.00;96.30;;;;;;4975590;28;92119;-70
2022/04/30 02:42:52;;;;;;;14.57;9.13;;;8.00;96.30;;;;;;4976313;28;92488;-70
2022/04/30 02:45:22;;;;;;;14.25;9.10;;;8.00;96.30;;;;;;4975895;28;92484;-70
2022/04/30 02:47:55;;;;;;;12.20;8.88;;;8.00;96.30;;;;;;4975000;28;94906;-70
2022/04/30 02:50:23;;;;;;;13.33;9.27;;;8.00;96.30;;;;;;4975879;28;92384;-70
2022/04/30 02:52:52;;;;;;;13.45;9.05;;;7.90;96.30;;;;;;4976109;28;92957;-70
2022/04/30 02:55:20;;;;;;;12.02;8.93;;;7.90;96.40;;;;;;4990351;28;99016;-70
2022/04/30 03:00:41;;;;;;;12.00;8.35;;;7.90;96.50;;;;;;4976348;28;92468;-70
2022/04/30 03:03:29;;;;;;;14.57;8.85;;;7.90;96.60;;;;;;4974639;28;92493;-70
2022/04/30 03:05:57;;;;;;;10.85;7.95;;;7.90;96.60;;;;;;4976248;28;91877;-70
2022/04/30 03:08:26;;;;;;;15.38;8.27;;;7.80;96.60;;;;;;4975686;28;92680;-70
2022/04/30 03:10:56;;;;;;;16.33;9.15;;;7.80;96.60;;;;;;4974341;28;94220;-70
2022/04/30 03:13:24;;;;;;;11.90;8.50;;;7.90;96.60;;;;;;4974624;28;94844;-70
2022/04/30 03:15:53;;;;;;;9.57;8.05;;;7.90;96.60;;;;;;4975792;28;93365;-70
2022/04/30 03:23:54;;;;;;;13.15;8.25;;;7.90;96.60;;;;;;5002912;28;92464;-70
2022/04/30 03:26:21;;;;;;;16.40;8.60;;;7.90;96.70;;;;;;4975536;28;93460;-70
2022/04/30 03:28:48;;;;;;;12.77;8.30;;;7.90;96.60;;;;;;4975702;28;92988;-70
2022/04/30 03:31:16;;;;;;;11.73;8.30;;;7.90;96.60;;;;;;5007371;28;91800;-70
2022/04/30 03:33:44;;;;;;;17.42;8.20;;;7.90;96.60;;;;;;4974524;28;92967;-70
2022/04/30 03:36:15;;;;;;;14.35;7.80;;;7.90;96.60;;;;;;4990470;28;95709;-70
2022/04/30 03:38:42;;;;;;;11.18;8.68;;;7.90;96.50;;;;;;4974325;28;94865;-70
2022/04/30 03:41:10;;;;;;;11.25;8.10;;;7.90;96.50;;;;;;4975502;28;92356;-70
2022/04/30 03:43:37;;;;;;;14.38;9.20;;;7.80;96.40;;;;;;4975795;28;92436;-70
2022/04/30 03:46:07;;;;;;;12.85;8.57;;;7.80;96.40;;;;;;4974051;28;95723;-70
2022/04/30 03:48:34;;;;;;;10.57;8.63;;;7.80;96.40;;;;;;4973950;28;94054;-70
2022/04/30 03:51:01;;;;;;;13.95;8.02;;;7.80;96.30;;;;;;5007388;28;92580;-70
2022/04/30 03:53:28;;;;;;;12.43;8.85;;;7.80;96.30;;;;;;4973895;28;92530;-70
2022/04/30 03:55:56;;;;;;;14.43;8.90;;;7.80;96.30;;;;;;4991099;28;92484;-70
2022/04/30 03:58:23;;;;;;;14.38;9.00;;;7.70;96.30;;;;;;4975250;28;92439;-70
2022/04/30 04:00:51;;;;;;;12.95;9.32;;;7.70;96.30;;;;;;5009226;28;92480;-70
2022/04/30 04:03:19;;;;;;;15.32;9.02;;;7.80;96.40;;;;;;4976219;28;94884;-70
2022/04/30 04:05:49;;;;;;;10.10;8.63;;;7.70;96.30;;;;;;4977335;28;94466;-70
2022/04/30 04:08:16;;;;;;;13.50;8.73;;;7.70;96.30;;;;;;4978326;28;93041;-70
2022/04/30 04:10:43;;;;;;;12.27;9.07;;;7.70;96.50;;;;;;5010564;28;92388;-70
2022/04/30 04:18:41;;;;;;;14.15;10.70;;;7.80;96.30;;;;;;5005560;28;93435;-70
2022/04/30 04:21:08;;;;;;;12.30;9.77;;;7.80;96.20;;;;;;4976818;28;91793;-70
2022/04/30 04:26:21;;;;;;;12.18;9.88;;;7.80;96.20;;;;;;4977759;28;93300;-70
2022/04/30 04:28:48;;;;;;;12.75;9.00;;;7.90;96.30;;;;;;5009282;28;94902;-70
2022/04/30 04:31:17;;;;;;;13.35;9.77;;;7.90;96.30;;;;;;4976755;28;92712;-70
2022/04/30 04:33:44;;;;;;;12.43;8.85;;;8.00;96.30;;;;;;4978412;28;92482;-70
2022/04/30 04:36:11;;;;;;;11.63;9.18;;;8.10;96.30;;;;;;4978359;28;93294;-70
2022/04/30 04:38:38;;;;;;;11.80;9.07;;;8.10;96.20;;;;;;4960579;28;95706;-70
2022/04/30 04:41:05;;;;;;;13.18;9.48;;;8.20;96.20;;;;;;4978327;28;92473;-70
2022/04/30 04:43:32;;;;;;;10.93;8.02;;;8.30;96.20;;;;;;4976915;28;93330;-70
2022/04/30 04:46:01;;;;;;;11.10;8.48;;;8.40;96.10;;;;;;4978498;28;91755;-70
2022/04/30 04:48:29;;;;;;;9.55;8.15;;;8.60;95.90;;;;;;5009730;28;93375;-70
2022/04/30 04:50:56;;;;;;;11.52;8.20;;;8.70;95.70;;;;;;4978108;28;92457;-70
2022/04/30 04:53:23;;;;;;;12.63;7.50;;;8.80;95.50;;;;;;5008281;28;96242;-70
2022/04/30 04:55:50;;;;;;;10.15;8.05;;;8.90;95.30;;;;;;4977878;28;93269;-70
2022/04/30 04:58:17;;;;;;;10.05;8.45;;;9.00;95.20;;;;;;4977651;28;92364;-70
2022/04/30 05:00:44;;;;;;;13.35;8.20;;;9.10;95.10;;;;;;4978145;28;92346;-70
2022/04/30 05:03:12;;;;;;;11.93;7.70;;;9.10;95.00;;;;;;4976935;28;93059;-70
2022/04/30 05:05:39;;;;;;;9.27;7.72;;;9.10;94.90;;;;;;4977297;28;93302;-70
2022/04/30 05:08:06;;;;;;;10.93;8.20;;;9.20;94.90;;;;;;4977707;28;92529;-70
2022/04/30 05:10:35;;;;;;;13.68;8.18;;;9.20;94.80;;;;;;4993313;28;91725;-70
2022/04/30 05:13:02;;;;;;;13.43;8.73;;;9.30;94.80;;;;;;4975635;28;92633;-70
2022/04/30 05:15:29;;;;;;;13.35;8.63;;;9.30;94.70;;;;;;4977379;28;93329;-70
2022/04/30 05:17:56;;;;;;;13.38;8.07;;;9.30;94.70;;;;;;5008191;28;94964;-70
2022/04/30 05:20:23;;;;;;;9.68;7.68;;;9.40;94.60;;;;;;5009104;28;92494;-70
2022/04/30 05:23:08;;;;;;;10.95;9.80;;;9.50;94.50;;;;;;4976868;28;92381;-70
2022/04/30 05:25:36;;;;;;;10.38;8.18;;;9.50;94.40;;;;;;4977135;28;93344;-70
2022/04/30 05:28:03;;;;;;;9.93;7.53;;;9.60;94.40;;;;;;4977317;28;93017;-70
2022/04/30 05:30:29;;;;;;;13.15;8.25;;;9.70;94.30;;;;;;4977329;28;92510;-70
2022/04/30 05:32:56;;;;;;;11.85;7.57;;;9.80;94.20;;;;;;5009380;28;92504;-70
2022/04/30 05:35:23;;;;;;;8.98;7.15;;;9.90;94.00;;;;;;4976047;28;94995;-70
2022/04/30 05:37:51;;;;;;;8.13;6.97;;;10.10;93.80;;;;;;4975995;28;95195;-70
2022/04/30 05:40:20;;;;;;;11.82;7.50;;;10.20;93.70;;;;;;5009235;28;92524;-70
2022/04/30 05:42:47;;;;;;;11.00;7.45;;;10.40;93.60;;;;;;4976180;28;95339;-70
2022/04/30 05:45:14;;;;;;;11.73;7.60;;;10.60;93.50;;;;;;5009073;28;93206;-70
2022/04/30 05:47:41;;;;;;;8.68;6.85;;;10.90;93.20;;;;;;4976600;28;102636;-70
2022/04/30 05:50:10;;;;;;;8.98;7.13;;;11.20;92.90;;;;;;4977064;28;92505;-70
2022/04/30 05:52:37;;;;;;;8.23;6.68;;;11.70;92.50;;;;;;4977044;28;92349;-70
2022/04/30 05:55:05;;;;;;;10.48;6.80;;;12.10;91.90;;;;;;4977037;28;93153;-70
2022/04/30 05:57:32;;;;;;;9.75;6.60;;;12.60;91.40;;;;;;4991800;28;95616;-70
2022/04/30 06:00:00;;;;;;;9.52;6.32;;;13.00;90.80;;;;;;4977453;28;91750;-70
2022/04/30 06:02:27;;;;;;;11.18;6.82;;;13.30;90.40;;;;;;4975126;28;92585;-70
2022/04/30 06:04:54;;;;;;;9.55;6.47;;;13.40;90.00;;;;;;4975547;28;95893;-70
2022/04/30 06:07:21;;;;;;;9.23;7.00;;;13.40;89.70;;;;;;4974432;28;95017;-70
2022/04/30 06:09:48;;;;;;;8.02;6.57;;;13.40;89.30;;;;;;4975250;28;92551;-70
2022/04/30 06:12:15;;;;;;;9.55;6.65;;;13.40;89.00;;;;;;4975750;28;92486;-70
2022/04/30 06:14:42;;;;;;;8.43;6.20;;;13.40;89.10;;;;;;5007890;28;93344;-70
2022/04/30 06:17:09;;;;;;;8.35;6.60;;;13.40;88.90;;;;;;4975642;28;92823;-70
2022/04/30 06:19:36;;;;;;;7.78;6.97;;;13.50;88.40;;;;;;5008181;28;92494;-70
2022/04/30 06:22:03;;;;;;;11.60;6.75;;;13.50;88.10;;;;;;4975059;28;92538;-70
2022/04/30 06:24:30;;;;;;;8.20;5.93;;;13.70;87.90;;;;;;5007115;28;94956;-70
2022/04/30 06:26:57;;;;;;;7.15;6.35;;;13.90;87.60;;;;;;4959054;28;93991;-70
2022/04/30 06:29:24;;;;;;;7.53;5.80;;;14.10;86.60;;;;;;5008723;28;92379;-70
2022/04/30 06:31:51;;;;;;;6.68;5.95;;;14.10;85.60;;;;;;4975207;28;94875;-70
2022/04/30 06:34:19;;;;;;;7.88;5.43;;;14.30;85.20;;;;;;4974935;28;95739;-70
2022/04/30 06:36:45;;;;;;;7.32;5.70;;;14.60;84.80;;;;;;4974576;28;96058;-70
2022/04/30 06:39:13;;;;;;;9.32;5.82;;;14.80;84.00;;;;;;4991845;28;92438;-70
2022/04/30 06:41:40;;;;;;;6.28;5.68;;;14.90;82.70;;;;;;4976363;28;92405;-70
2022/04/30 06:44:07;;;;;;;7.22;6.07;;;15.10;82.90;;;;;;4991710;28;93322;-70
2022/04/30 06:46:33;;;;;;;7.28;6.50;;;15.20;82.40;;;;;;4975957;28;92896;-70
2022/04/30 06:49:00;;;;;;;6.95;5.57;;;15.40;82.40;;;;;;4991705;28;91683;-71
2022/04/30 06:51:27;;;;;;;7.20;5.25;;;15.50;80.90;;;;;;5008122;28;92440;-70
2022/04/30 06:59:28;;;;;;;5.65;4.72;;;15.60;80.50;;;;;;4974667;28;92478;-70
2022/04/30 07:02:01;;;;;;;7.43;5.72;;;15.70;79.30;;;;;;4974585;28;92515;-71
2022/04/30 07:04:32;;;;;;;8.55;5.68;;;15.80;79.40;;;;;;4974596;28;95771;-71
2022/04/30 07:07:00;;;;;;;7.63;6.00;;;15.90;80.00;;;;;;4974707;28;95681;-70
2022/04/30 07:09:32;;;;;;;7.25;5.63;;;15.90;78.80;;;;;;5007890;28;92530;-70
2022/04/30 07:12:05;;;;;;;6.60;4.95;;;16.00;78.50;;;;;;4976196;28;92423;-71
2022/04/30 07:14:35;;;;;;;4.70;3.90;;;16.20;78.00;;;;;;4975146;28;92672;-71
2022/04/30 07:17:04;;;;;;;6.60;6.00;;;16.30;77.20;;;;;;4976098;28;92528;-71
2022/04/30 07:19:31;;;;;;;6.40;4.57;;;16.30;77.10;;;;;;4974531;28;92441;-71
2022/04/30 07:21:58;;;;;;;7.07;4.50;;;16.50;77.80;;;;;;4974209;28;95974;-71
2022/04/30 07:24:25;;;;;;;5.32;4.82;;;16.50;76.60;;;;;;4975792;28;93015;-71
2022/04/30 07:26:53;;;;;;;6.53;4.95;;;16.30;75.90;;;;;;4990787;28;92768;-71
2022/04/30 07:29:23;;;;;;;7.03;4.32;;;16.20;76.80;;;;;;4976131;28;92342;-71
2022/04/30 07:31:51;;;;;;;5.38;4.18;;;16.20;76.50;;;;;;5007149;28;92502;-71
2022/04/30 07:34:18;;;;;;;4.97;4.25;;;16.00;76.90;;;;;;4973892;28;101229;-71
2022/04/30 07:36:45;;;;;;;6.88;4.75;;;15.80;76.60;;;;;;4990404;28;92923;-71
2022/04/30 07:39:12;;;;;;;5.15;4.57;;;15.50;77.00;;;;;;4991040;28;91974;-71
2022/04/30 07:41:38;;;;;;;7.32;4.32;;;15.40;77.50;;;;;;4975624;28;92442;-71
2022/04/30 07:44:05;;;;;;;7.22;4.90;;;15.40;78.20;;;;;;4975772;28;93273;-71
2022/04/30 07:46:32;;;;;;;5.80;5.22;;;15.30;77.70;;;;;;4989318;28;94942;-71
2022/04/30 07:49:00;;;;;;;6.13;4.90;;;15.40;77.50;;;;;;4975549;28;92426;-71
2022/04/30 07:51:42;;;;;;;6.90;5.30;;;15.40;77.70;;;;;;4975515;28;92425;-71
2022/04/30 07:54:10;;;;;;;5.78;4.45;;;15.40;77.30;;;;;;4975824;28;93293;-71
2022/04/30 07:56:37;;;;;;;7.38;5.03;;;15.60;77.30;;;;;;4973882;28;95506;-71
2022/04/30 07:59:04;;;;;;;6.38;4.55;;;15.60;77.10;;;;;;4975164;28;92433;-71
2022/04/30 08:01:30;;;;;;;5.40;4.53;;;15.60;76.60;;;;;;4990790;28;92615;-71
2022/04/30 08:03:58;;;;;;;7.03;5.38;;;15.60;76.10;;;;;;4975602;28;92353;-71
2022/04/30 08:06:25;;;;;;;6.32;5.18;;;15.70;76.70;;;;;;5007095;28;92578;-71
2022/04/30 08:08:51;;;;;;;6.10;5.18;;;15.90;76.10;;;;;;4957428;28;92530;-71
2022/04/30 08:11:18;;;;;;;7.55;5.10;;;16.10;74.80;;;;;;4989137;28;95236;-71
2022/04/30 08:13:45;;;;;;;5.72;5.15;;;16.30;75.00;;;;;;4974846;28;93132;-71
2022/04/30 08:16:12;;;;;;;6.05;4.38;;;16.40;74.30;;;;;;4973671;28;95450;-71
2022/04/30 08:18:39;;;;;;;5.45;4.40;;;16.40;72.70;;;;;;4974029;28;92507;-71
2022/04/30 08:21:07;;;;;;;6.53;4.50;;;16.50;72.00;;;;;;4974019;28;106798;-71
2022/04/30 08:23:35;;;;;;;4.90;4.38;;;16.60;72.20;;;;;;4974920;28;94325;-71
2022/04/30 08:26:03;;;;;;;7.57;4.85;;;16.60;71.90;;;;;;4973203;28;94142;-71
2022/04/30 08:28:30;;;;;;;6.88;6.28;;;16.70;71.40;;;;;;5007283;28;91757;-71
2022/04/30 08:30:58;;;;;;;5.80;4.05;;;16.80;71.10;;;;;;4974769;28;92470;-71
2022/04/30 08:33:26;;;;;;;5.30;4.43;;;16.90;70.60;;;;;;4975058;28;93316;-71
2022/04/30 08:35:53;;;;;;;8.25;5.75;;;17.10;69.90;;;;;;4972384;28;94937;-71
2022/04/30 08:38:20;;;;;;;7.30;5.93;;;17.40;69.30;;;;;;4975216;28;92494;-71
2022/04/30 08:40:47;;;;;;;5.18;4.70;;;17.70;68.90;;;;;;4973499;28;92461;-71
2022/04/30 08:43:16;;;;;;;5.47;5.07;;;17.70;68.10;;;;;;4973418;28;95938;-71
2022/04/30 08:45:45;;;;;;;8.02;5.07;;;17.50;65.70;;;;;;4974679;28;92879;-71
2022/04/30 08:48:17;;;;;;;6.13;5.15;;;17.30;66.70;;;;;;4977125;28;92355;-71
2022/04/30 08:50:49;;;;;;;7.47;4.38;;;17.30;67.40;;;;;;5010206;28;92520;-71
2022/04/30 08:53:16;;;;;;;5.07;4.50;;;17.60;67.00;;;;;;4978466;28;92563;-71
2022/04/30 08:55:43;;;;;;;6.20;5.70;;;17.80;66.30;;;;;;4977840;28;92556;-71
2022/04/30 08:58:11;;;;;;;6.43;5.85;;;18.10;65.20;;;;;;4977834;28;92516;-71
2022/04/30 09:00:43;;;;;;;5.25;4.07;;;18.40;64.00;;;;;;4991595;28;94862;-71
2022/04/30 09:03:15;;;;;;;5.80;4.78;;;18.50;61.20;;;;;;4976542;28;93222;-71
2022/04/30 09:05:42;;;;;;;6.03;5.53;;;18.70;61.50;;;;;;4977726;28;92902;-71
2022/04/30 09:08:09;;;;;;;4.57;4.18;;;18.60;61.50;;;;;;4960089;28;92679;-71
2022/04/30 09:10:42;;;;;;;5.22;4.72;;;18.50;60.40;;;;;;4977774;28;92441;-71
2022/04/30 09:13:14;;;;;;;7.27;4.17;;;18.60;62.30;;;;;;4977342;28;93146;-71
2022/04/30 09:15:46;;;;;;;6.20;4.97;;;18.60;61.20;;;;;;4976485;28;92939;-71
2022/04/30 09:18:14;;;;;;;6.35;5.55;;;18.40;61.10;;;;;;4993150;28;91736;-71
2022/04/30 09:20:42;;;;;;;7.78;5.78;;;18.30;62.90;;;;;;4977126;28;92486;-71
2022/04/30 09:23:10;;;;;;;5.90;4.68;;;18.20;64.60;;;;;;4992564;28;93298;-71
2022/04/30 09:25:49;;;;;;;5.82;5.20;;;18.10;65.60;;;;;;5008130;28;94873;-71
2022/04/30 09:28:23;;;;;;;8.10;5.10;;;18.00;64.70;;;;;;5009286;28;92491;-71
2022/04/30 09:30:50;;;;;;;5.78;4.07;;;18.00;64.80;;;;;;4976102;28;92491;-71
2022/04/30 09:33:19;;;;;;;5.10;4.38;;;17.70;62.90;;;;;;4992471;28;93526;-71
2022/04/30 09:38:38;;;;;;;7.30;5.78;;;17.50;64.50;;;;;;4976139;28;92474;-71
2022/04/30 09:41:08;;;;;;;4.40;3.95;;;17.30;64.00;;;;;;4977202;28;92436;-71
2022/04/30 09:43:35;;;;;;;6.05;5.40;;;17.10;64.50;;;;;;5009244;28;95015;-71
2022/04/30 09:46:07;;;;;;;6.32;5.68;;;16.80;65.40;;;;;;5008236;28;92800;-71
2022/04/30 09:54:07;;;;;;;6.88;6.28;;;16.80;68.10;;;;;;4976919;28;93298;-71
2022/04/30 09:56:36;;;;;;;8.60;5.78;;;16.90;67.60;;;;;;4975431;28;95956;-71
2022/04/30 09:59:08;;;;;;;6.93;6.30;;;16.90;67.30;;;;;;4975124;28;92471;-71
2022/04/30 10:01:37;;;;;;;5.45;4.90;;;17.00;67.10;;;;;;4977124;28;92423;-71
2022/04/30 10:04:15;;;;;;;7.35;6.75;;;16.90;66.90;;;;;;5008298;28;95650;-71
2022/04/30 10:06:48;;;;;;;9.20;6.53;;;17.00;67.20;;;;;;4976767;28;92917;-71
2022/04/30 10:09:20;;;;;;;5.40;4.90;;;16.90;67.40;;;;;;4976134;28;91711;-71
2022/04/30 10:11:56;;;;;;;5.65;5.15;;;16.90;67.20;;;;;;4975793;28;92549;-71
2022/04/30 10:14:50;;;;;;;6.30;5.68;;;16.90;67.30;;;;;;4975053;28;95866;-71
2022/04/30 10:17:23;;;;;;;7.13;5.18;;;16.90;67.40;;;;;;4990605;28;95717;-71
2022/04/30 10:20:07;;;;;;;6.22;5.63;;;16.80;66.90;;;;;;5006973;28;92592;-71
2022/04/30 10:22:35;;;;;;;6.63;4.70;;;16.80;66.80;;;;;;4975442;28;92806;-71
2022/04/30 10:25:03;;;;;;;7.85;5.20;;;16.80;67.40;;;;;;4976177;28;93260;-71
2022/04/30 10:27:44;;;;;;;7.53;5.05;;;16.80;66.50;;;;;;4976530;28;92999;-71
2022/04/30 10:30:24;;;;;;;7.53;4.97;;;16.80;65.20;;;;;;5008388;28;92492;-71
2022/04/30 10:33:06;;;;;;;9.48;4.22;;;16.60;66.30;;;;;;4976615;28;92420;-71
2022/04/30 10:35:35;;;;;;;5.13;4.60;;;16.50;65.50;;;;;;4975245;28;99616;-71
2022/04/30 10:38:21;;;;;;;7.20;5.38;;;16.30;65.70;;;;;;4976127;28;92482;-71
2022/04/30 10:40:56;;;;;;;9.50;6.00;;;16.50;66.90;;;;;;4976751;28;92432;-71
2022/04/30 10:43:34;;;;;;;6.38;4.38;;;16.50;66.40;;;;;;4975107;28;95032;-71
2022/04/30 10:46:03;;;;;;;5.18;4.32;;;16.60;65.70;;;;;;4976488;28;93571;-72
2022/04/30 10:48:33;;;;;;;5.20;4.70;;;16.80;66.20;;;;;;4976057;28;92681;-71
2022/04/30 10:51:03;;;;;;;8.63;5.50;;;16.80;66.20;;;;;;4976147;28;92468;-71
2022/04/30 10:53:31;;;;;;;8.60;5.03;;;16.80;66.20;;;;;;4974567;28;92508;-71
2022/04/30 10:56:03;;;;;;;7.57;4.78;;;16.80;66.20;;;;;;4973715;28;114553;-71
2022/04/30 10:58:31;;;;;;;5.88;5.03;;;16.70;67.10;;;;;;4975152;28;92928;-71
2022/04/30 11:01:13;;;;;;;7.88;6.03;;;16.70;66.70;;;;;;5007989;28;91725;-71
2022/04/30 11:03:49;;;;;;;6.57;4.90;;;16.80;67.00;;;;;;4974850;28;92421;-71
2022/04/30 11:06:31;;;;;;;6.25;5.38;;;16.80;66.20;;;;;;4974368;28;95980;-71
2022/04/30 11:09:08;;;;;;;5.07;4.57;;;16.70;66.70;;;;;;4974827;28;94883;-71
2022/04/30 11:11:36;;;;;;;5.40;4.63;;;16.70;65.50;;;;;;4975803;28;92352;-71
2022/04/30 11:14:08;;;;;;;6.68;4.80;;;16.60;65.30;;;;;;4975778;28;92507;-71
2022/04/30 11:16:38;;;;;;;7.07;5.55;;;16.60;65.40;;;;;;4976073;28;93126;-71
2022/04/30 11:19:10;;;;;;;5.93;4.93;;;16.70;65.80;;;;;;4975436;28;93109;-71
2022/04/30 11:21:42;;;;;;;5.80;4.63;;;16.90;65.80;;;;;;4975554;28;92714;-71
2022/04/30 11:24:10;;;;;;;7.70;4.53;;;17.00;64.30;;;;;;5007646;28;92455;-72
2022/04/30 11:26:42;;;;;;;5.38;4.75;;;17.10;63.30;;;;;;4991102;28;92561;-71
2022/04/30 11:29:13;;;;;;;6.85;4.95;;;17.10;62.50;;;;;;4973996;28;94894;-71
2022/04/30 11:31:43;;;;;;;5.57;4.00;;;17.20;63.10;;;;;;4975844;28;92893;-71
2022/04/30 11:34:12;;;;;;;4.75;4.20;;;17.20;63.30;;;;;;4974113;28;94861;-71
2022/04/30 11:36:42;;;;;;;4.88;4.38;;;17.20;63.80;;;;;;4973998;28;95787;-71
2022/04/30 11:39:10;;;;;;;6.70;6.15;;;17.30;63.00;;;;;;5007403;28;95661;-71
2022/04/30 11:41:42;;;;;;;5.65;4.55;;;17.40;63.10;;;;;;4975735;28;92437;-71
2022/04/30 11:44:10;;;;;;;5.22;4.80;;;17.50;62.50;;;;;;4975686;28;92406;-71
2022/04/30 11:46:39;;;;;;;7.32;4.47;;;17.60;62.90;;;;;;5006690;28;93273;-71
2022/04/30 11:49:13;;;;;;;6.25;5.70;;;17.50;62.70;;;;;;4975380;28;92904;-71
2022/04/30 11:52:00;;;;;;;5.15;4.57;;;17.70;62.50;;;;;;4974568;28;91842;-71
2022/04/30 11:54:28;;;;;;;4.60;3.95;;;17.70;62.30;;;;;;4974060;28;92566;-71
2022/04/30 11:56:59;;;;;;;8.68;4.75;;;17.80;60.60;;;;;;4973969;28;95405;-71
2022/04/30 11:59:31;;;;;;;5.97;5.38;;;18.00;60.60;;;;;;4973989;28;94846;-71
2022/04/30 12:02:06;;;;;;;5.78;5.28;;;18.10;60.20;;;;;;4975435;28;92505;-71
2022/04/30 12:04:42;;;;;;;4.57;4.28;;;18.40;60.30;;;;;;4974186;28;93612;-71
2022/04/30 12:07:11;;;;;;;4.55;4.13;;;18.40;57.70;;;;;;4973394;28;95719;-71
2022/04/30 12:09:47;;;;;;;6.82;5.55;;;18.40;57.30;;;;;;4974553;28;93017;-72
2022/04/30 12:12:18;;;;;;;8.98;4.40;;;18.40;57.30;;;;;;4975352;28;92342;-73
2022/04/30 12:14:53;;;;;;;4.45;3.60;;;18.50;56.80;;;;;;4990711;28;92514;-73
2022/04/30 12:17:31;;;;;;;4.85;4.32;;;18.60;55.30;;;;;;5007351;28;95113;-73
2022/04/30 12:26:05;;;;;;;5.75;3.83;;;18.70;56.00;;;;;;5004172;28;94896;-73
2022/04/30 12:28:46;;;;;;;8.57;4.25;;;18.80;56.10;;;;;;5008671;28;93439;-73
2022/04/30 12:31:14;;;;;;;5.07;3.67;;;18.80;54.60;;;;;;4978308;28;94855;-73
2022/04/30 12:33:48;;;;;;;8.48;5.07;;;18.70;54.90;;;;;;4976924;28;92618;-73
2022/04/30 12:36:16;;;;;;;3.92;3.20;;;18.60;55.20;;;;;;4978333;28;92436;-73
2022/04/30 12:38:56;;;;;;;4.95;4.47;;;18.20;55.50;;;;;;4978274;28;93078;-72
2022/04/30 12:41:24;;;;;;;4.32;3.45;;;18.20;56.00;;;;;;4978282;28;93009;-73
2022/04/30 12:43:52;;;;;;;3.45;3.15;;;17.80;55.00;;;;;;4978836;28;91686;-73
2022/04/30 12:46:20;;;;;;;4.13;2.95;;;17.80;55.20;;;;;;4978245;28;92916;-73
2022/04/30 12:48:51;;;;;;;4.35;3.60;;;17.80;56.20;;;;;;5009946;28;93282;-72
2022/04/30 12:51:19;;;;;;;4.25;3.13;;;17.90;56.00;;;;;;5008650;28;97709;-72
2022/04/30 12:53:46;;;;;;;6.20;3.15;;;17.90;55.50;;;;;;4978305;28;92538;-72
2022/04/30 12:56:13;;;;;;;5.00;3.00;;;17.90;55.00;;;;;;5010034;28;92619;-73
2022/04/30 12:58:41;;;;;;;3.70;3.30;;;17.90;55.20;;;;;;4977700;28;93077;-73
2022/04/30 13:01:08;;;;;;;3.97;3.05;;;17.80;55.50;;;;;;4976404;28;94443;-73
2022/04/30 13:03:35;;;;;;;3.60;3.30;;;17.70;54.80;;;;;;4977932;28;92403;-73
2022/04/30 13:06:03;;;;;;;3.28;3.05;;;17.90;55.40;;;;;;4978115;28;92480;-73
2022/04/30 13:13:31;;;;;;;3.70;3.40;;;17.90;54.80;;;;;;4976563;28;95227;-73
2022/04/30 13:14:03;;;;;;;2.97;2.78;;;18.20;54.30;;;;;;4978182;28;92884;-73
2022/04/30 13:16:30;;;;;;;3.70;3.38;;;18.40;53.30;;;;;;5008163;28;95004;-73
2022/04/30 13:18:58;;;;;;;4.45;3.75;;;18.40;53.40;;;;;;4976057;28;94937;-73
2022/04/30 13:21:26;;;;;;;5.57;3.75;;;18.50;52.60;;;;;;4976929;28;93359;-73
2022/04/30 13:23:53;;;;;;;5.07;3.72;;;18.70;51.50;;;;;;5009422;28;92506;-73
2022/04/30 13:26:22;;;;;;;3.42;3.13;;;18.70;53.00;;;;;;4992715;28;92619;-73
2022/04/30 13:28:50;;;;;;;3.38;3.13;;;18.60;53.00;;;;;;4977321;28;95246;-73
2022/04/30 13:31:17;;;;;;;3.97;3.58;;;18.60;53.50;;;;;;4976135;28;93023;-73
2022/04/30 13:33:44;;;;;;;4.15;3.50;;;18.60;53.40;;;;;;4977177;28;92029;-73
2022/04/30 13:36:11;;;;;;;5.88;4.47;;;18.70;53.00;;;;;;4992855;28;92446;-73
2022/04/30 13:38:40;;;;;;;4.53;4.15;;;18.70;53.60;;;;;;4975613;28;95835;-73
2022/04/30 13:41:08;;;;;;;4.03;3.60;;;18.70;53.40;;;;;;4976189;28;94907;-73
2022/04/30 13:43:35;;;;;;;3.88;3.50;;;18.60;52.70;;;;;;4977116;28;92735;-73